Time,TemperatureF,DewpointF,PressureIn,WindDirection,WindDirectionDegrees,WindSpeedMPH,WindSpeedGustMPH,Humidity,HourlyPrecipIn,Conditions,Clouds,dailyrainin,SoftwareType,DateUTC
2013-03-13 00:03:00,16.1,12.9,30.12,WNW,294,0.0,3.0,87,0.00,,---,0.00,VWS V14.01,2013-03-13 05:03:00,
2013-03-13 00:08:00,16.0,12.8,30.12,WNW,294,2.0,3.0,87,0.00,,---,0.00,VWS V14.01,2013-03-13 05:08:00,
2013-03-13 00:18:00,16.0,12.8,30.12,WNW,286,0.0,5.0,87,0.00,,---,0.00,VWS V14.01,2013-03-13 05:18:00,
2013-03-13 00:23:00,16.1,12.9,30.12,South,181,0.0,1.0,87,0.00,,---,0.00,VWS V14.01,2013-03-13 05:23:00,
2013-03-13 00:28:00,15.9,12.5,30.12,WSW,242,0.0,3.0,86,0.00,,---,0.00,VWS V14.01,2013-03-13 05:28:00,
2013-03-13 00:38:00,15.5,12.1,30.12,West,279,0.0,2.0,86,0.00,,---,0.00,VWS V14.01,2013-03-13 05:38:00,
2013-03-13 00:43:00,15.5,11.8,30.12,WNW,290,1.0,4.0,85,0.00,,---,0.00,VWS V14.01,2013-03-13 05:43:00,
2013-03-13 00:48:00,15.5,11.8,30.12,West,276,0.0,5.0,85,0.00,,---,0.00,VWS V14.01,2013-03-13 05:48:00,
2013-03-13 00:53:00,15.4,11.4,30.12,West,276,0.0,2.0,84,0.00,,---,0.00,VWS V14.01,2013-03-13 05:53:00,
2013-03-13 01:03:00,15.0,11.1,30.12,West,276,2.0,2.0,84,0.00,,---,0.00,VWS V14.01,2013-03-13 06:03:00,
2013-03-13 01:08:00,15.0,10.8,30.12,WNW,294,0.0,3.0,83,0.00,,---,0.00,VWS V14.01,2013-03-13 06:08:00,
2013-03-13 01:13:00,14.9,10.7,30.13,WNW,293,0.0,2.0,83,0.00,,---,0.00,VWS V14.01,2013-03-13 06:13:00,
2013-03-13 01:18:00,14.9,10.4,30.13,WNW,295,0.0,4.0,82,0.00,,---,0.00,VWS V14.01,2013-03-13 06:18:00,
2013-03-13 01:23:00,14.8,10.3,30.13,WNW,295,0.0,0.0,82,0.00,,---,0.00,VWS V14.01,2013-03-13 06:23:00,
2013-03-13 01:28:00,14.6,10.1,30.13,SW,230,0.0,2.0,82,0.00,,---,0.00,VWS V14.01,2013-03-13 06:28:00,
2013-03-13 01:33:00,14.4,9.6,30.13,WNW,288,1.0,3.0,81,0.00,,---,0.00,VWS V14.01,2013-03-13 06:33:00,
2013-03-13 01:38:00,14.3,9.6,30.13,West,277,0.0,3.0,81,0.00,,---,0.00,VWS V14.01,2013-03-13 06:38:00,
2013-03-13 01:43:00,14.2,9.4,30.13,West,277,2.0,3.0,81,0.00,,---,0.00,VWS V14.01,2013-03-13 06:43:00,
2013-03-13 01:48:00,14.3,9.6,30.14,West,279,0.0,3.0,81,0.00,,---,0.00,VWS V14.01,2013-03-13 06:48:00,
2013-03-13 01:53:00,14.1,9.1,30.14,West,279,0.0,1.0,80,0.00,,---,0.00,VWS V14.01,2013-03-13 06:53:00,
2013-03-13 01:58:00,14.0,9.0,30.14,West,280,0.0,3.0,80,0.00,,---,0.00,VWS V14.01,2013-03-13 06:58:00,
2013-03-13 02:08:00,14.1,9.1,30.14,WNW,300,0.0,5.0,80,0.00,,---,0.00,VWS V14.01,2013-03-13 07:08:00,
2013-03-13 02:13:00,13.9,8.6,30.14,WNW,300,0.0,0.0,79,0.00,,---,0.00,VWS V14.01,2013-03-13 07:13:00,
2013-03-13 02:18:00,13.6,8.3,30.15,WNW,289,0.0,2.0,79,0.00,,---,0.00,VWS V14.01,2013-03-13 07:18:00,
2013-03-13 02:28:00,13.5,8.2,30.15,West,279,0.0,2.0,79,0.00,,---,0.00,VWS V14.01,2013-03-13 07:28:00,
2013-03-13 02:33:00,13.6,8.0,30.15,NW,317,0.0,7.0,78,0.00,,---,0.00,VWS V14.01,2013-03-13 07:33:00,
2013-03-13 02:38:00,13.8,8.2,30.15,NW,317,0.0,1.0,78,0.00,,---,0.00,VWS V14.01,2013-03-13 07:38:00,
2013-03-13 02:43:00,13.7,8.1,30.15,NW,317,0.0,0.0,78,0.00,,---,0.00,VWS V14.01,2013-03-13 07:43:00,
2013-03-13 02:48:00,13.7,7.8,30.15,West,279,0.0,4.0,77,0.00,,---,0.00,VWS V14.01,2013-03-13 07:48:00,
2013-03-13 02:53:00,13.7,7.8,30.15,West,279,0.0,1.0,77,0.00,,---,0.00,VWS V14.01,2013-03-13 07:53:00,
2013-03-13 03:03:00,13.4,7.6,30.16,West,280,0.0,0.0,77,0.00,,---,0.00,VWS V14.01,2013-03-13 08:03:00,
2013-03-13 03:13:00,13.1,7.3,30.16,West,279,0.0,0.0,77,0.00,,---,0.00,VWS V14.01,2013-03-13 08:13:00,
2013-03-13 03:23:00,13.0,7.2,30.16,WNW,288,3.0,4.0,77,0.00,,---,0.00,VWS V14.01,2013-03-13 08:23:00,
2013-03-13 03:28:00,13.5,7.4,30.16,WNW,292,0.0,6.0,76,0.00,,---,0.00,VWS V14.01,2013-03-13 08:28:00,
2013-03-13 03:33:00,13.6,7.5,30.16,WNW,292,0.0,2.0,76,0.00,,---,0.00,VWS V14.01,2013-03-13 08:33:00,
2013-03-13 03:43:00,13.4,7.0,30.17,WNW,291,1.0,3.0,75,0.00,,---,0.00,VWS V14.01,2013-03-13 08:43:00,
2013-03-13 03:48:00,13.4,7.0,30.17,WNW,283,0.0,2.0,75,0.00,,---,0.00,VWS V14.01,2013-03-13 08:48:00,
2013-03-13 03:53:00,13.4,7.3,30.17,WNW,283,0.0,0.0,76,0.00,,---,0.00,VWS V14.01,2013-03-13 08:53:00,
2013-03-13 04:03:00,13.2,7.1,30.17,WNW,283,0.0,0.0,76,0.00,,---,0.00,VWS V14.01,2013-03-13 09:03:00,
2013-03-13 04:08:00,13.2,7.1,30.17,WNW,284,0.0,3.0,76,0.00,,---,0.00,VWS V14.01,2013-03-13 09:08:00,
2013-03-13 04:18:00,13.4,7.3,30.18,West,271,0.0,4.0,76,0.00,,---,0.00,VWS V14.01,2013-03-13 09:18:00,
2013-03-13 04:28:00,14.0,7.6,30.18,WNW,284,0.0,6.0,75,0.00,,---,0.00,VWS V14.01,2013-03-13 09:28:00,
2013-03-13 04:33:00,14.2,7.4,30.18,WNW,284,0.0,2.0,74,0.00,,---,0.00,VWS V14.01,2013-03-13 09:33:00,
2013-03-13 04:38:00,14.2,7.4,30.18,WNW,283,0.0,2.0,74,0.00,,---,0.00,VWS V14.01,2013-03-13 09:38:00,
2013-03-13 04:48:00,14.1,7.3,30.18,WNW,284,0.0,3.0,74,0.00,,---,0.00,VWS V14.01,2013-03-13 09:48:00,
2013-03-13 04:53:00,14.0,7.2,30.19,WNW,284,0.0,0.0,74,0.00,,---,0.00,VWS V14.01,2013-03-13 09:53:00,
2013-03-13 04:58:00,14.0,7.2,30.19,WNW,284,0.0,1.0,74,0.00,,---,0.00,VWS V14.01,2013-03-13 09:58:00,
2013-03-13 05:03:00,14.2,7.2,30.19,WNW,296,0.0,4.0,73,0.00,,---,0.00,VWS V14.01,2013-03-13 10:03:00,
2013-03-13 05:08:00,14.5,7.4,30.20,WNW,294,0.0,4.0,73,0.00,,---,0.00,VWS V14.01,2013-03-13 10:08:00,
2013-03-13 05:13:00,14.5,7.1,30.20,WNW,288,0.0,4.0,72,0.00,,---,0.00,VWS V14.01,2013-03-13 10:13:00,
2013-03-13 05:23:00,14.4,6.7,30.20,WNW,286,0.0,2.0,71,0.00,,---,0.00,VWS V14.01,2013-03-13 10:23:00,
2013-03-13 05:33:00,14.2,6.5,30.20,WNW,284,0.0,2.0,71,0.00,,---,0.00,VWS V14.01,2013-03-13 10:33:00,
2013-03-13 05:38:00,14.0,6.3,30.21,WNW,284,0.0,1.0,71,0.00,,---,0.00,VWS V14.01,2013-03-13 10:38:00,
2013-03-13 05:43:00,13.8,6.5,30.21,WNW,284,0.0,0.0,72,0.00,,---,0.00,VWS V14.01,2013-03-13 10:43:00,
2013-03-13 05:53:00,13.3,6.0,30.21,WNW,284,0.0,1.0,72,0.00,,---,0.00,VWS V14.01,2013-03-13 10:53:00,
2013-03-13 05:58:00,13.2,5.9,30.21,WNW,285,0.0,3.0,72,0.00,,---,0.00,VWS V14.01,2013-03-13 10:58:00,
2013-03-13 06:03:00,13.2,5.9,30.22,WNW,284,0.0,2.0,72,0.00,,---,0.00,VWS V14.01,2013-03-13 11:03:00,
2013-03-13 06:08:00,13.2,5.6,30.22,West,281,0.0,4.0,71,0.00,,---,0.00,VWS V14.01,2013-03-13 11:08:00,
2013-03-13 06:18:00,11.9,5.2,30.22,West,281,0.0,0.0,74,0.00,,---,0.00,VWS V14.01,2013-03-13 11:18:00,
2013-03-13 06:28:00,10.8,4.7,30.22,West,281,1.0,1.0,76,0.00,,---,0.00,VWS V14.01,2013-03-13 11:28:00,
2013-03-13 06:38:00,9.9,3.9,30.23,West,281,0.0,0.0,76,0.00,,---,0.00,VWS V14.01,2013-03-13 11:38:00,
2013-03-13 06:43:00,9.4,3.7,30.23,West,281,0.0,0.0,77,0.00,,---,0.00,VWS V14.01,2013-03-13 11:43:00,
2013-03-13 06:48:00,9.6,4.1,30.23,WNW,284,0.0,5.0,78,0.00,,---,0.00,VWS V14.01,2013-03-13 11:48:00,
2013-03-13 06:53:00,10.2,4.7,30.23,WNW,284,0.0,0.0,78,0.00,,---,0.00,VWS V14.01,2013-03-13 11:53:00,
2013-03-13 06:58:00,11.1,5.3,30.23,West,275,0.0,3.0,77,0.00,,---,0.00,VWS V14.01,2013-03-13 11:58:00,
2013-03-13 07:08:00,12.6,5.9,30.24,WNW,288,5.0,5.0,74,0.00,,---,0.00,VWS V14.01,2013-03-13 12:08:00,
2013-03-13 07:13:00,12.9,5.0,30.25,WNW,283,4.0,5.0,70,0.00,,---,0.00,VWS V14.01,2013-03-13 12:13:00,
2013-03-13 07:18:00,12.7,4.8,30.25,West,272,3.0,6.0,70,0.00,,---,0.00,VWS V14.01,2013-03-13 12:18:00,
2013-03-13 07:28:00,12.3,4.4,30.25,West,271,5.0,5.0,70,0.00,,---,0.00,VWS V14.01,2013-03-13 12:28:00,
2013-03-13 07:38:00,12.0,4.4,30.25,WNW,290,4.0,4.0,71,0.00,,---,0.00,VWS V14.01,2013-03-13 12:38:00,
2013-03-13 07:43:00,11.7,4.1,30.25,WNW,284,2.0,5.0,71,0.00,,---,0.00,VWS V14.01,2013-03-13 12:43:00,
2013-03-13 07:48:00,11.3,3.7,30.25,WNW,284,2.0,4.0,71,0.00,,---,0.00,VWS V14.01,2013-03-13 12:48:00,
2013-03-13 07:53:00,11.0,3.8,30.26,WNW,285,2.0,3.0,72,0.00,,---,0.00,VWS V14.01,2013-03-13 12:53:00,
2013-03-13 07:58:00,10.8,3.9,30.26,West,276,2.0,4.0,73,0.00,,---,0.00,VWS V14.01,2013-03-13 12:58:00,
2013-03-13 08:03:00,11.2,4.5,30.26,West,273,4.0,5.0,74,0.00,,---,0.00,VWS V14.01,2013-03-13 13:03:00,
2013-03-13 08:08:00,11.7,5.0,30.26,West,277,3.0,5.0,74,0.00,,---,0.00,VWS V14.01,2013-03-13 13:08:00,
2013-03-13 08:18:00,12.0,5.0,30.27,West,277,4.0,4.0,73,0.00,,---,0.00,VWS V14.01,2013-03-13 13:18:00,
2013-03-13 08:23:00,12.5,5.8,30.28,WNW,292,3.0,6.0,74,0.00,,---,0.00,VWS V14.01,2013-03-13 13:23:00,
2013-03-13 08:28:00,13.2,6.2,30.27,WNW,287,4.0,6.0,73,0.00,,---,0.00,VWS V14.01,2013-03-13 13:28:00,
2013-03-13 08:33:00,13.5,6.2,30.28,West,281,3.0,5.0,72,0.00,,---,0.00,VWS V14.01,2013-03-13 13:33:00,
2013-03-13 08:43:00,14.1,6.8,30.28,WNW,292,4.0,6.0,72,0.00,,---,0.00,VWS V14.01,2013-03-13 13:43:00,
2013-03-13 08:48:00,14.6,7.2,30.29,WNW,298,2.0,5.0,72,0.00,,---,0.00,VWS V14.01,2013-03-13 13:48:00,
2013-03-13 08:53:00,15.5,7.8,30.29,West,279,3.0,6.0,71,0.00,,---,0.00,VWS V14.01,2013-03-13 13:53:00,
2013-03-13 08:58:00,16.3,7.9,30.29,WNW,287,1.0,10.0,69,0.00,,---,0.00,VWS V14.01,2013-03-13 13:58:00,
2013-03-13 09:03:00,16.9,8.5,30.29,NW,313,4.0,6.0,69,0.00,,---,0.00,VWS V14.01,2013-03-13 14:03:00,
2013-03-13 09:08:00,17.3,8.6,30.30,WNW,289,0.0,11.0,68,0.00,,---,0.00,VWS V14.01,2013-03-13 14:08:00,
2013-03-13 09:13:00,17.7,8.9,30.30,NW,310,4.0,5.0,68,0.00,,---,0.00,VWS V14.01,2013-03-13 14:13:00,
2013-03-13 09:18:00,17.6,8.5,30.30,WNW,283,5.0,10.0,67,0.00,,---,0.00,VWS V14.01,2013-03-13 14:18:00,
2013-03-13 09:23:00,17.5,8.8,30.31,WNW,296,0.0,11.0,68,0.00,,---,0.00,VWS V14.01,2013-03-13 14:23:00,
2013-03-13 09:28:00,17.9,8.8,30.31,West,279,7.0,8.0,67,0.00,,---,0.00,VWS V14.01,2013-03-13 14:28:00,
2013-03-13 09:33:00,18.2,9.1,30.31,NW,309,3.0,8.0,67,0.00,,---,0.00,VWS V14.01,2013-03-13 14:33:00,
2013-03-13 09:38:00,18.2,8.8,30.31,NW,322,1.0,9.0,66,0.00,,---,0.00,VWS V14.01,2013-03-13 14:38:00,
2013-03-13 09:43:00,18.5,9.4,30.31,NW,307,5.0,5.0,67,0.00,,---,0.00,VWS V14.01,2013-03-13 14:43:00,
2013-03-13 09:48:00,18.8,9.7,30.32,NW,318,2.0,5.0,67,0.00,,---,0.00,VWS V14.01,2013-03-13 14:48:00,
2013-03-13 09:53:00,18.8,9.0,30.32,NW,306,0.0,10.0,65,0.00,,---,0.00,VWS V14.01,2013-03-13 14:53:00,
2013-03-13 09:58:00,19.0,9.9,30.32,North,355,2.0,10.0,67,0.00,,---,0.00,VWS V14.01,2013-03-13 14:58:00,
2013-03-13 10:03:00,19.5,10.0,30.33,WNW,294,0.0,4.0,66,0.00,,---,0.00,VWS V14.01,2013-03-13 15:03:00,
2013-03-13 10:08:00,19.7,10.2,30.33,NNW,342,0.0,5.0,66,0.00,,---,0.00,VWS V14.01,2013-03-13 15:08:00,
2013-03-13 10:13:00,19.8,9.9,30.33,WNW,303,2.0,13.0,65,0.00,,---,0.00,VWS V14.01,2013-03-13 15:13:00,
2013-03-13 10:18:00,20.2,10.7,30.33,North,351,4.0,5.0,66,0.00,,---,0.00,VWS V14.01,2013-03-13 15:18:00,
2013-03-13 10:23:00,20.2,10.3,30.33,NW,313,4.0,10.0,65,0.00,,---,0.00,VWS V14.01,2013-03-13 15:23:00,
2013-03-13 10:28:00,19.7,9.9,30.33,WNW,292,1.0,9.0,65,0.00,,---,0.00,VWS V14.01,2013-03-13 15:28:00,
2013-03-13 10:33:00,19.5,9.7,30.33,West,259,8.0,12.0,65,0.00,,---,0.00,VWS V14.01,2013-03-13 15:33:00,
2013-03-13 10:38:00,19.6,9.8,30.34,NW,308,5.0,11.0,65,0.00,,---,0.00,VWS V14.01,2013-03-13 15:38:00,
2013-03-13 10:43:00,19.7,9.9,30.34,WNW,303,6.0,12.0,65,0.00,,---,0.00,VWS V14.01,2013-03-13 15:43:00,
2013-03-13 10:53:00,19.9,10.1,30.34,WNW,294,0.0,13.0,65,0.00,,---,0.00,VWS V14.01,2013-03-13 15:53:00,
2013-03-13 10:58:00,20.6,10.0,30.34,WNW,286,6.0,13.0,63,0.00,,---,0.00,VWS V14.01,2013-03-13 15:58:00,
2013-03-13 11:03:00,20.6,10.4,30.34,WNW,286,6.0,10.0,64,0.00,,---,0.00,VWS V14.01,2013-03-13 16:03:00,
2013-03-13 11:13:00,21.0,10.4,30.34,WNW,295,5.0,7.0,63,0.00,,---,0.00,VWS V14.01,2013-03-13 16:13:00,
2013-03-13 11:23:00,21.4,10.4,30.34,West,277,6.0,12.0,62,0.00,,---,0.00,VWS V14.01,2013-03-13 16:23:00,
2013-03-13 11:28:00,22.0,11.0,30.34,West,272,6.0,6.0,62,0.00,,---,0.00,VWS V14.01,2013-03-13 16:28:00,
2013-03-13 11:33:00,22.1,10.4,30.34,WNW,300,5.0,13.0,60,0.00,,---,0.00,VWS V14.01,2013-03-13 16:33:00,
2013-03-13 11:38:00,22.3,9.8,30.34,WNW,290,5.0,11.0,58,0.00,,---,0.00,VWS V14.01,2013-03-13 16:38:00,
2013-03-13 11:48:00,22.5,9.6,30.34,WNW,296,7.0,12.0,57,0.00,,---,0.00,VWS V14.01,2013-03-13 16:48:00,
2013-03-13 11:53:00,22.7,10.5,30.33,WNW,294,0.0,11.0,59,0.00,,---,0.00,VWS V14.01,2013-03-13 16:53:00,
2013-03-13 11:58:00,23.2,9.8,30.33,WNW,284,2.0,6.0,56,0.00,,---,0.00,VWS V14.01,2013-03-13 16:58:00,
2013-03-13 12:03:00,22.9,8.8,30.33,West,272,5.0,12.0,54,0.00,,---,0.00,VWS V14.01,2013-03-13 17:03:00,
2013-03-13 12:08:00,22.9,8.3,30.33,West,260,4.0,12.0,53,0.00,,---,0.00,VWS V14.01,2013-03-13 17:08:00,
2013-03-13 12:18:00,24.3,7.9,30.33,NW,311,5.0,10.0,49,0.00,,---,0.00,VWS V14.01,2013-03-13 17:18:00,
2013-03-13 12:23:00,24.4,8.9,30.33,North,355,1.0,6.0,51,0.00,,---,0.00,VWS V14.01,2013-03-13 17:23:00,
2013-03-13 12:28:00,25.0,8.6,30.33,West,272,5.0,10.0,49,0.00,,---,0.00,VWS V14.01,2013-03-13 17:28:00,
2013-03-13 12:33:00,24.8,7.4,30.33,WNW,294,0.0,11.0,47,0.00,,---,0.00,VWS V14.01,2013-03-13 17:33:00,
2013-03-13 12:38:00,25.6,8.6,30.32,NW,306,4.0,5.0,48,0.00,,---,0.00,VWS V14.01,2013-03-13 17:38:00,
2013-03-13 12:43:00,26.1,9.1,30.32,West,260,0.0,10.0,48,0.00,,---,0.00,VWS V14.01,2013-03-13 17:43:00,
2013-03-13 12:53:00,26.9,7.4,30.32,WNW,288,7.0,11.0,43,0.01,,---,0.01,VWS V14.01,2013-03-13 17:53:00,
2013-03-13 12:58:00,26.8,8.3,30.32,SSW,212,3.0,7.0,45,0.01,,---,0.01,VWS V14.01,2013-03-13 17:58:00,
2013-03-13 13:03:00,26.8,8.3,30.32,North,360,4.0,9.0,45,0.01,,---,0.01,VWS V14.01,2013-03-13 18:03:00,
2013-03-13 13:08:00,26.9,8.4,30.32,WNW,282,0.0,9.0,45,0.01,,---,0.01,VWS V14.01,2013-03-13 18:08:00,
2013-03-13 13:18:00,26.1,6.2,30.33,WNW,283,1.0,13.0,42,0.01,,---,0.01,VWS V14.01,2013-03-13 18:18:00,
2013-03-13 13:28:00,26.5,6.5,30.32,WNW,284,4.0,12.0,42,0.01,,---,0.01,VWS V14.01,2013-03-13 18:28:00,
2013-03-13 13:33:00,27.0,7.0,30.32,WSW,257,0.0,9.0,42,0.01,,---,0.01,VWS V14.01,2013-03-13 18:33:00,
2013-03-13 13:38:00,27.0,6.4,30.32,NNW,330,0.0,14.0,41,0.01,,---,0.01,VWS V14.01,2013-03-13 18:38:00,
2013-03-13 13:43:00,27.6,7.0,30.31,West,265,4.0,6.0,41,0.01,,---,0.01,VWS V14.01,2013-03-13 18:43:00,
2013-03-13 13:53:00,27.0,5.3,30.31,NNW,346,1.0,13.0,39,0.01,,---,0.01,VWS V14.01,2013-03-13 18:53:00,
2013-03-13 13:58:00,27.5,5.8,30.31,West,275,4.0,7.0,39,0.00,,---,0.01,VWS V14.01,2013-03-13 18:58:00,
2013-03-13 14:08:00,27.8,4.9,30.31,West,272,5.0,10.0,37,0.00,,---,0.01,VWS V14.01,2013-03-13 19:08:00,
2013-03-13 14:13:00,27.7,6.0,30.32,NNW,338,0.0,7.0,39,0.00,,---,0.01,VWS V14.01,2013-03-13 19:13:00,
2013-03-13 14:18:00,27.5,5.8,30.31,West,281,5.0,10.0,39,0.00,,---,0.01,VWS V14.01,2013-03-13 19:18:00,
2013-03-13 14:23:00,27.7,5.4,30.32,WNW,292,4.0,10.0,38,0.01,,---,0.02,VWS V14.01,2013-03-13 19:23:00,
2013-03-13 14:28:00,28.2,6.4,30.31,NW,310,3.0,10.0,39,0.01,,---,0.02,VWS V14.01,2013-03-13 19:28:00,
2013-03-13 14:38:00,28.4,6.1,30.31,West,281,6.0,14.0,38,0.01,,---,0.02,VWS V14.01,2013-03-13 19:38:00,
2013-03-13 14:48:00,29.1,7.2,30.31,West,280,4.0,9.0,39,0.01,,---,0.02,VWS V14.01,2013-03-13 19:48:00,
2013-03-13 14:53:00,28.7,4.5,30.31,WNW,298,3.0,11.0,35,0.01,,---,0.02,VWS V14.01,2013-03-13 19:53:00,
2013-03-13 14:58:00,29.1,6.7,30.31,West,275,6.0,7.0,38,0.01,,---,0.02,VWS V14.01,2013-03-13 19:58:00,
2013-03-13 15:03:00,29.5,7.6,30.31,NW,322,1.0,7.0,39,0.01,,---,0.02,VWS V14.01,2013-03-13 20:03:00,
2013-03-13 15:08:00,29.6,5.9,30.31,WNW,294,10.0,12.0,36,0.01,,---,0.02,VWS V14.01,2013-03-13 20:08:00,
2013-03-13 15:18:00,28.8,5.8,30.30,WNW,292,7.0,9.0,37,0.01,,---,0.02,VWS V14.01,2013-03-13 20:18:00,
2013-03-13 15:23:00,29.0,6.6,30.30,WNW,300,10.0,11.0,38,0.01,,---,0.02,VWS V14.01,2013-03-13 20:23:00,
2013-03-13 15:28:00,28.8,7.0,30.30,WNW,300,0.0,12.0,39,0.00,,---,0.02,VWS V14.01,2013-03-13 20:28:00,
2013-03-13 15:33:00,29.7,8.9,30.30,WNW,288,0.0,1.0,41,0.00,,---,0.02,VWS V14.01,2013-03-13 20:33:00,
2013-03-13 15:38:00,30.3,8.9,30.30,West,275,0.0,6.0,40,0.00,,---,0.02,VWS V14.01,2013-03-13 20:38:00,
2013-03-13 15:48:00,30.3,8.3,30.30,West,281,5.0,10.0,39,0.01,,---,0.03,VWS V14.01,2013-03-13 20:48:00,
2013-03-13 15:53:00,30.3,7.2,30.30,NNW,344,0.0,6.0,37,0.01,,---,0.03,VWS V14.01,2013-03-13 20:53:00,
2013-03-13 15:58:00,30.6,7.4,30.30,West,268,1.0,5.0,37,0.01,,---,0.03,VWS V14.01,2013-03-13 20:58:00,
2013-03-13 16:03:00,30.7,8.1,30.30,WNW,289,1.0,9.0,38,0.01,,---,0.03,VWS V14.01,2013-03-13 21:03:00,
2013-03-13 16:08:00,30.1,6.4,30.30,WNW,286,5.0,10.0,36,0.01,,---,0.03,VWS V14.01,2013-03-13 21:08:00,
2013-03-13 16:13:00,30.2,6.5,30.30,WNW,285,0.0,6.0,36,0.01,,---,0.03,VWS V14.01,2013-03-13 21:13:00,
2013-03-13 16:23:00,30.8,8.8,30.31,WNW,290,0.0,6.0,39,0.01,,---,0.03,VWS V14.01,2013-03-13 21:23:00,
2013-03-13 16:28:00,31.0,8.4,30.30,NW,311,0.0,6.0,38,0.01,,---,0.03,VWS V14.01,2013-03-13 21:28:00,
2013-03-13 16:38:00,30.8,8.8,30.30,WNW,289,4.0,4.0,39,0.01,,---,0.03,VWS V14.01,2013-03-13 21:38:00,
2013-03-13 16:43:00,30.8,7.6,30.30,WNW,295,2.0,7.0,37,0.01,,---,0.03,VWS V14.01,2013-03-13 21:43:00,
2013-03-13 16:48:00,30.8,7.6,30.30,NW,321,0.0,7.0,37,0.01,,---,0.03,VWS V14.01,2013-03-13 21:48:00,
2013-03-13 16:58:00,30.7,6.3,30.30,WNW,303,8.0,10.0,35,0.00,,---,0.03,VWS V14.01,2013-03-13 21:58:00,
2013-03-13 17:03:00,30.2,7.1,30.30,West,281,6.0,11.0,37,0.00,,---,0.03,VWS V14.01,2013-03-13 22:03:00,
2013-03-13 17:13:00,30.0,7.5,30.30,WNW,286,0.0,7.0,38,0.00,,---,0.03,VWS V14.01,2013-03-13 22:13:00,
2013-03-13 17:18:00,30.2,7.1,30.30,NW,304,5.0,6.0,37,0.00,,---,0.03,VWS V14.01,2013-03-13 22:18:00,
2013-03-13 17:23:00,30.3,7.2,30.30,SW,230,0.0,7.0,37,0.00,,---,0.03,VWS V14.01,2013-03-13 22:23:00,
2013-03-13 17:28:00,30.2,6.5,30.30,WNW,303,0.0,6.0,36,0.01,,---,0.04,VWS V14.01,2013-03-13 22:28:00,
2013-03-13 17:33:00,30.3,6.6,30.30,North,355,0.0,3.0,36,0.01,,---,0.04,VWS V14.01,2013-03-13 22:33:00,
2013-03-13 17:38:00,30.2,6.5,30.30,West,275,0.0,4.0,36,0.01,,---,0.04,VWS V14.01,2013-03-13 22:38:00,
2013-03-13 17:43:00,30.3,7.2,30.30,NNW,333,0.0,4.0,37,0.01,,---,0.04,VWS V14.01,2013-03-13 22:43:00,
2013-03-13 17:48:00,30.3,6.6,30.30,WNW,300,0.0,4.0,36,0.01,,---,0.04,VWS V14.01,2013-03-13 22:48:00,
2013-03-13 17:53:00,30.1,6.4,30.30,WNW,300,0.0,2.0,36,0.01,,---,0.04,VWS V14.01,2013-03-13 22:53:00,
2013-03-13 17:58:00,29.9,5.0,30.30,WNW,284,0.0,8.0,34,0.01,,---,0.04,VWS V14.01,2013-03-13 22:58:00,
2013-03-13 18:03:00,29.7,7.2,30.30,NW,315,0.0,5.0,38,0.01,,---,0.04,VWS V14.01,2013-03-13 23:03:00,
2013-03-13 18:13:00,29.3,6.9,30.30,WNW,294,0.0,3.0,38,0.01,,---,0.04,VWS V14.01,2013-03-13 23:13:00,
2013-03-13 18:18:00,29.4,6.4,30.30,West,272,0.0,3.0,37,0.01,,---,0.04,VWS V14.01,2013-03-13 23:18:00,
2013-03-13 18:28:00,29.3,6.9,30.30,West,272,0.0,3.0,38,0.01,,---,0.04,VWS V14.01,2013-03-13 23:28:00,
2013-03-13 18:33:00,29.2,7.3,30.30,West,272,0.0,1.0,39,0.00,,---,0.04,VWS V14.01,2013-03-13 23:33:00,
2013-03-13 18:43:00,28.4,6.1,30.29,West,272,0.0,0.0,38,0.00,,---,0.04,VWS V14.01,2013-03-13 23:43:00,
2013-03-13 18:48:00,27.8,7.2,30.30,West,272,0.0,0.0,41,0.00,,---,0.04,VWS V14.01,2013-03-13 23:48:00,
2013-03-13 18:53:00,27.2,8.2,30.30,West,272,0.0,0.0,44,0.00,,---,0.04,VWS V14.01,2013-03-13 23:53:00,
2013-03-13 19:03:00,25.7,7.3,30.29,West,272,0.0,0.0,45,0.00,,---,0.04,VWS V14.01,2013-03-14 00:03:00,
2013-03-13 19:13:00,24.5,7.2,30.29,West,272,0.0,0.0,47,0.00,,---,0.04,VWS V14.01,2013-03-14 00:13:00,
2013-03-13 19:18:00,24.1,6.3,30.29,West,272,0.0,0.0,46,0.00,,---,0.04,VWS V14.01,2013-03-14 00:18:00,
2013-03-13 19:23:00,23.7,7.3,30.29,West,272,0.0,0.0,49,0.00,,---,0.04,VWS V14.01,2013-03-14 00:23:00,
2013-03-13 19:28:00,23.3,8.3,30.29,West,272,0.0,0.0,52,0.00,,---,0.04,VWS V14.01,2013-03-14 00:28:00,
2013-03-13 19:33:00,22.7,7.7,30.29,West,272,0.0,0.0,52,0.00,,---,0.04,VWS V14.01,2013-03-14 00:33:00,
2013-03-13 19:38:00,22.2,6.8,30.29,West,272,0.0,0.0,51,0.00,,---,0.04,VWS V14.01,2013-03-14 00:38:00,
2013-03-13 19:48:00,21.2,8.7,30.29,West,272,0.0,0.0,58,0.00,,---,0.04,VWS V14.01,2013-03-14 00:48:00,
2013-03-13 19:53:00,20.7,8.6,30.29,West,272,0.0,0.0,59,0.00,,---,0.04,VWS V14.01,2013-03-14 00:53:00,
2013-03-13 19:58:00,20.2,7.4,30.29,West,272,0.0,0.0,57,0.00,,---,0.04,VWS V14.01,2013-03-14 00:58:00,
2013-03-13 20:08:00,19.7,9.5,30.29,West,272,0.0,0.0,64,0.00,,---,0.04,VWS V14.01,2013-03-14 01:08:00,
2013-03-13 20:13:00,19.1,9.3,30.29,West,272,0.0,0.0,65,0.00,,---,0.04,VWS V14.01,2013-03-14 01:13:00,
2013-03-13 20:23:00,18.1,8.7,30.29,West,272,0.0,0.0,66,0.00,,---,0.04,VWS V14.01,2013-03-14 01:23:00,
2013-03-13 20:28:00,17.8,9.0,30.29,West,272,0.0,0.0,68,0.00,,---,0.04,VWS V14.01,2013-03-14 01:28:00,
2013-03-13 20:33:00,17.4,8.3,30.29,West,272,0.0,0.0,67,0.00,,---,0.04,VWS V14.01,2013-03-14 01:33:00,
2013-03-13 20:38:00,17.2,8.5,30.28,West,272,0.0,0.0,68,0.00,,---,0.04,VWS V14.01,2013-03-14 01:38:00,
2013-03-13 20:48:00,16.8,8.7,30.29,West,272,0.0,0.0,70,0.00,,---,0.04,VWS V14.01,2013-03-14 01:48:00,
2013-03-13 20:53:00,16.5,8.4,30.29,West,272,0.0,0.0,70,0.00,,---,0.04,VWS V14.01,2013-03-14 01:53:00,
2013-03-13 20:58:00,16.3,8.2,30.29,West,272,0.0,0.0,70,0.00,,---,0.04,VWS V14.01,2013-03-14 01:58:00,
2013-03-13 21:08:00,16.0,8.3,30.29,West,272,0.0,0.0,71,0.00,,---,0.04,VWS V14.01,2013-03-14 02:08:00,
2013-03-13 21:18:00,15.7,8.6,30.29,West,272,0.0,0.0,73,0.00,,---,0.04,VWS V14.01,2013-03-14 02:18:00,
2013-03-13 21:28:00,15.4,8.3,30.29,West,272,0.0,0.0,73,0.00,,---,0.04,VWS V14.01,2013-03-14 02:28:00,
2013-03-13 21:33:00,15.3,8.2,30.29,West,272,0.0,0.0,73,0.00,,---,0.04,VWS V14.01,2013-03-14 02:33:00,
2013-03-13 21:38:00,15.2,8.1,30.29,West,272,0.0,0.0,73,0.00,,---,0.04,VWS V14.01,2013-03-14 02:38:00,
2013-03-13 21:48:00,14.7,7.9,30.29,West,272,0.0,0.0,74,0.00,,---,0.04,VWS V14.01,2013-03-14 02:48:00,
2013-03-13 21:53:00,14.5,7.4,30.29,West,272,0.0,0.0,73,0.00,,---,0.04,VWS V14.01,2013-03-14 02:53:00,
2013-03-13 21:58:00,14.4,7.0,30.29,West,272,0.0,0.0,72,0.00,,---,0.04,VWS V14.01,2013-03-14 02:58:00,
2013-03-13 22:03:00,14.3,7.2,30.29,West,272,0.0,0.0,73,0.00,,---,0.04,VWS V14.01,2013-03-14 03:03:00,
2013-03-13 22:08:00,14.3,7.6,30.29,West,272,0.0,0.0,74,0.00,,---,0.04,VWS V14.01,2013-03-14 03:08:00,
2013-03-13 22:13:00,14.0,7.2,30.28,West,272,0.0,0.0,74,0.00,,---,0.04,VWS V14.01,2013-03-14 03:13:00,
2013-03-13 22:18:00,13.9,7.4,30.28,West,272,0.0,0.0,75,0.00,,---,0.04,VWS V14.01,2013-03-14 03:18:00,
2013-03-13 22:28:00,13.5,7.1,30.28,West,272,0.0,0.0,75,0.00,,---,0.04,VWS V14.01,2013-03-14 03:28:00,
2013-03-13 22:33:00,13.6,7.5,30.28,West,272,0.0,0.0,76,0.00,,---,0.04,VWS V14.01,2013-03-14 03:33:00,
2013-03-13 22:38:00,13.8,7.4,30.28,West,272,0.0,1.0,75,0.00,,---,0.04,VWS V14.01,2013-03-14 03:38:00,
2013-03-13 22:48:00,13.8,7.1,30.28,West,272,0.0,1.0,74,0.00,,---,0.04,VWS V14.01,2013-03-14 03:48:00,
2013-03-13 22:58:00,14.5,6.8,30.28,West,272,0.0,2.0,71,0.00,,---,0.04,VWS V14.01,2013-03-14 03:58:00,
2013-03-13 23:03:00,15.1,6.5,30.29,WSW,254,1.0,3.0,68,0.00,,---,0.04,VWS V14.01,2013-03-14 04:03:00,
2013-03-13 23:08:00,15.9,6.9,30.28,WSW,254,0.0,3.0,67,0.00,,---,0.04,VWS V14.01,2013-03-14 04:08:00,
2013-03-13 23:18:00,17.4,7.3,30.29,WSW,253,0.0,3.0,64,0.00,,---,0.04,VWS V14.01,2013-03-14 04:18:00,
2013-03-13 23:23:00,17.7,7.3,30.29,WSW,254,0.0,3.0,63,0.00,,---,0.04,VWS V14.01,2013-03-14 04:23:00,
2013-03-13 23:33:00,16.8,7.1,30.28,WSW,253,0.0,0.0,65,0.00,,---,0.04,VWS V14.01,2013-03-14 04:33:00,
2013-03-13 23:38:00,16.4,7.0,30.28,WSW,253,0.0,1.0,66,0.00,,---,0.04,VWS V14.01,2013-03-14 04:38:00,
2013-03-13 23:43:00,16.4,7.0,30.28,WSW,253,0.0,2.0,66,0.00,,---,0.04,VWS V14.01,2013-03-14 04:43:00,
2013-03-13 23:48:00,16.3,7.3,30.28,WSW,254,0.0,0.0,67,0.00,,---,0.04,VWS V14.01,2013-03-14 04:48:00,
2013-03-13 23:53:00,17.0,7.9,30.29,WSW,253,2.0,2.0,67,0.00,,---,0.04,VWS V14.01,2013-03-14 04:53:00,
2013-03-13 23:58:00,18.0,8.2,30.28,WSW,254,0.0,2.0,65,0.00,,---,0.04,VWS V14.01,2013-03-14 04:58:00,